Accueil
METAR-TAF:

METAR-TAF

Aéroports :

Aéroport d'Osijek

Osijek, Croatie

latitude: 45-27N, longitude: 018-48E, altitude: 88 m

Observation

Le bulletin a été fait il y a 38 minutes, à 23:00 UTC
Vent 8 kt de nord/nord-ouest
Température 20°C
Humidité 83%
Pression 1014 hPa
Visibilité 10 km ou plus
Quelques nuages à une hauteur de 4000 ft

METAR: LDOS 032300Z 34008KT 9999 FEW040 20/17 Q1014

Heure: 01:38 (23:38 UTC)

Prévision

Le bulletin a été fait il y a 3 heures et 36 minutes, à 20:02 UTC
Prévision valable du 03 à 20 UTC au 04 à 18 UTC
Vent 2 kt de direction variable
Visibilité 10 km ou plus
pas de nuages en-dessous de 1500 mètres et pas de cumulonimbus.
Temporairement
du 03 à 20 UTC au 03 à 23 UTC
Quelques nuages à une hauteur de 4000 ft, Cumulonimbus.
orage, pluie

TAF: LDOS 032002Z 0320/0418 VRB02KT CAVOK TX30/0413Z TN19/0403Z TEMPO 0320/0323 TSRA FEW040CB

Observations et prévisions météorologiques de plus de 4000 aéroports (messages METAR et TAF).

Les stations disponibles sont représentées par des disques jaunes et rouges sur la carte.

Passer la souris dessus pour voir le nom de la station.

Cliquer dessus pour voir les observations et prévisions météorologiques.

Pour changer de carte: cliquez sur les boutons verts avec une croix noire pour zoomer, sur le bouton vert avec un tiret pour effectuer un zoom arrière, ou sur les flèches vertes pour les cartes adjacentes.


METAR-TAF: